sensor_id;sensor_type;location;lat;lon;timestamp;temperature;humidity
63094;DHT22;49183;51.380;0.098;2023-05-24T00:00:34;9.80;82.20
63094;DHT22;49183;51.380;0.098;2023-05-24T00:03:01;9.80;82.40
63094;DHT22;49183;51.380;0.098;2023-05-24T00:05:31;9.80;82.40
63094;DHT22;49183;51.380;0.098;2023-05-24T00:07:59;9.90;82.50
63094;DHT22;49183;51.380;0.098;2023-05-24T00:10:26;9.80;82.50
63094;DHT22;49183;51.380;0.098;2023-05-24T00:12:54;9.80;82.60
63094;DHT22;49183;51.380;0.098;2023-05-24T00:15:22;9.80;82.60
63094;DHT22;49183;51.380;0.098;2023-05-24T00:17:50;9.80;82.60
63094;DHT22;49183;51.380;0.098;2023-05-24T00:20:18;9.80;82.60
63094;DHT22;49183;51.380;0.098;2023-05-24T00:22:47;9.70;82.60
63094;DHT22;49183;51.380;0.098;2023-05-24T00:25:15;9.70;82.50
63094;DHT22;49183;51.380;0.098;2023-05-24T00:27:43;9.70;82.60
63094;DHT22;49183;51.380;0.098;2023-05-24T00:30:10;9.60;82.60
63094;DHT22;49183;51.380;0.098;2023-05-24T00:32:40;9.60;82.70
63094;DHT22;49183;51.380;0.098;2023-05-24T00:35:08;9.60;82.80
63094;DHT22;49183;51.380;0.098;2023-05-24T00:37:35;9.50;82.80
63094;DHT22;49183;51.380;0.098;2023-05-24T00:40:04;9.50;83.00
63094;DHT22;49183;51.380;0.098;2023-05-24T00:42:32;9.40;83.10
63094;DHT22;49183;51.380;0.098;2023-05-24T00:45:00;9.40;83.20
63094;DHT22;49183;51.380;0.098;2023-05-24T00:47:28;9.40;83.30
63094;DHT22;49183;51.380;0.098;2023-05-24T00:49:55;9.40;83.40
63094;DHT22;49183;51.380;0.098;2023-05-24T00:52:23;9.30;83.50
63094;DHT22;49183;51.380;0.098;2023-05-24T00:54:51;9.30;83.60
63094;DHT22;49183;51.380;0.098;2023-05-24T00:57:19;9.30;83.80
63094;DHT22;49183;51.380;0.098;2023-05-24T00:59:48;9.30;84.00
63094;DHT22;49183;51.380;0.098;2023-05-24T01:02:15;9.30;84.00
63094;DHT22;49183;51.380;0.098;2023-05-24T01:04:46;9.30;84.10
63094;DHT22;49183;51.380;0.098;2023-05-24T01:12:48;9.30;84.20
63094;DHT22;49183;51.380;0.098;2023-05-24T01:15:30;9.30;84.20
63094;DHT22;49183;51.380;0.098;2023-05-24T01:22:12;9.30;84.50
63094;DHT22;49183;51.380;0.098;2023-05-24T01:27:03;9.30;84.40
63094;DHT22;49183;51.380;0.098;2023-05-24T01:29:33;9.30;84.50
63094;DHT22;49183;51.380;0.098;2023-05-24T01:32:02;9.30;84.50
63094;DHT22;49183;51.380;0.098;2023-05-24T01:34:29;9.20;84.50
63094;DHT22;49183;51.380;0.098;2023-05-24T01:36:57;9.20;84.60
63094;DHT22;49183;51.380;0.098;2023-05-24T01:39:26;9.20;84.80
63094;DHT22;49183;51.380;0.098;2023-05-24T01:50:32;9.20;85.00
63094;DHT22;49183;51.380;0.098;2023-05-24T01:53:05;9.20;85.10
63094;DHT22;49183;51.380;0.098;2023-05-24T01:55:33;9.10;85.10
63094;DHT22;49183;51.380;0.098;2023-05-24T01:58:04;9.10;85.40
63094;DHT22;49183;51.380;0.098;2023-05-24T02:00:33;9.10;85.50
63094;DHT22;49183;51.380;0.098;2023-05-24T02:03:01;9.00;85.70
63094;DHT22;49183;51.380;0.098;2023-05-24T02:05:31;9.10;85.80
63094;DHT22;49183;51.380;0.098;2023-05-24T02:08:04;9.00;85.80
63094;DHT22;49183;51.380;0.098;2023-05-24T02:10:32;9.00;85.90
63094;DHT22;49183;51.380;0.098;2023-05-24T02:12:59;9.00;85.90
63094;DHT22;49183;51.380;0.098;2023-05-24T02:15:27;9.00;86.00
63094;DHT22;49183;51.380;0.098;2023-05-24T02:17:57;8.90;86.00
63094;DHT22;49183;51.380;0.098;2023-05-24T02:20:25;8.90;86.10
63094;DHT22;49183;51.380;0.098;2023-05-24T02:22:55;8.80;86.20
63094;DHT22;49183;51.380;0.098;2023-05-24T02:25:25;8.80;86.30
63094;DHT22;49183;51.380;0.098;2023-05-24T02:27:53;8.80;86.30
63094;DHT22;49183;51.380;0.098;2023-05-24T02:30:21;8.80;86.40
63094;DHT22;49183;51.380;0.098;2023-05-24T02:32:48;8.80;86.40
63094;DHT22;49183;51.380;0.098;2023-05-24T02:35:16;8.80;86.50
63094;DHT22;49183;51.380;0.098;2023-05-24T02:37:44;8.80;86.60
63094;DHT22;49183;51.380;0.098;2023-05-24T02:40:12;8.80;86.50
63094;DHT22;49183;51.380;0.098;2023-05-24T02:42:40;8.80;86.60
63094;DHT22;49183;51.380;0.098;2023-05-24T02:45:08;8.80;86.70
63094;DHT22;49183;51.380;0.098;2023-05-24T02:47:36;8.80;86.70
63094;DHT22;49183;51.380;0.098;2023-05-24T02:50:04;8.80;86.70
63094;DHT22;49183;51.380;0.098;2023-05-24T02:52:32;8.80;86.90
63094;DHT22;49183;51.380;0.098;2023-05-24T02:55:00;8.80;87.00
63094;DHT22;49183;51.380;0.098;2023-05-24T02:57:27;8.80;87.10
63094;DHT22;49183;51.380;0.098;2023-05-24T02:59:55;8.80;87.00
63094;DHT22;49183;51.380;0.098;2023-05-24T03:02:23;8.80;87.10
63094;DHT22;49183;51.380;0.098;2023-05-24T03:04:51;8.70;87.10
63094;DHT22;49183;51.380;0.098;2023-05-24T03:07:19;8.70;87.20
63094;DHT22;49183;51.380;0.098;2023-05-24T03:09:48;8.60;87.20
63094;DHT22;49183;51.380;0.098;2023-05-24T03:12:16;8.60;87.30
63094;DHT22;49183;51.380;0.098;2023-05-24T03:14:43;8.60;87.30
63094;DHT22;49183;51.380;0.098;2023-05-24T03:17:11;8.60;87.40
63094;DHT22;49183;51.380;0.098;2023-05-24T03:19:38;8.50;87.50
63094;DHT22;49183;51.380;0.098;2023-05-24T03:22:06;8.50;87.60
63094;DHT22;49183;51.380;0.098;2023-05-24T03:24:35;8.50;87.60
63094;DHT22;49183;51.380;0.098;2023-05-24T03:27:05;8.50;87.70
63094;DHT22;49183;51.380;0.098;2023-05-24T03:29:33;8.50;87.70
63094;DHT22;49183;51.380;0.098;2023-05-24T03:32:00;8.50;87.70
63094;DHT22;49183;51.380;0.098;2023-05-24T03:34:28;8.40;87.70
63094;DHT22;49183;51.380;0.098;2023-05-24T03:36:56;8.40;87.80
63094;DHT22;49183;51.380;0.098;2023-05-24T03:39:24;8.40;87.90
63094;DHT22;49183;51.380;0.098;2023-05-24T03:42:07;8.40;88.00
63094;DHT22;49183;51.380;0.098;2023-05-24T03:44:34;8.30;88.00
63094;DHT22;49183;51.380;0.098;2023-05-24T03:47:02;8.40;88.00
63094;DHT22;49183;51.380;0.098;2023-05-24T03:49:31;8.30;88.10
63094;DHT22;49183;51.380;0.098;2023-05-24T03:51:58;8.30;88.10
63094;DHT22;49183;51.380;0.098;2023-05-24T03:54:27;8.30;88.10
63094;DHT22;49183;51.380;0.098;2023-05-24T03:56:54;8.30;88.10
63094;DHT22;49183;51.380;0.098;2023-05-24T03:59:23;8.20;88.20
63094;DHT22;49183;51.380;0.098;2023-05-24T04:01:51;8.20;88.30
63094;DHT22;49183;51.380;0.098;2023-05-24T04:04:19;8.10;88.40
63094;DHT22;49183;51.380;0.098;2023-05-24T04:06:46;8.10;88.50
63094;DHT22;49183;51.380;0.098;2023-05-24T04:09:15;8.10;88.50
63094;DHT22;49183;51.380;0.098;2023-05-24T04:11:43;8.10;88.40
63094;DHT22;49183;51.380;0.098;2023-05-24T04:14:11;8.10;88.40
63094;DHT22;49183;51.380;0.098;2023-05-24T04:16:39;8.10;88.50
63094;DHT22;49183;51.380;0.098;2023-05-24T04:19:08;8.10;88.30
63094;DHT22;49183;51.380;0.098;2023-05-24T04:21:36;8.00;88.40
63094;DHT22;49183;51.380;0.098;2023-05-24T04:24:05;8.00;88.40
63094;DHT22;49183;51.380;0.098;2023-05-24T04:26:33;8.00;88.50
63094;DHT22;49183;51.380;0.098;2023-05-24T04:29:01;7.90;88.60
63094;DHT22;49183;51.380;0.098;2023-05-24T04:31:30;7.90;88.60
63094;DHT22;49183;51.380;0.098;2023-05-24T04:34:00;8.00;88.60
63094;DHT22;49183;51.380;0.098;2023-05-24T04:36:29;8.10;88.60
63094;DHT22;49183;51.380;0.098;2023-05-24T04:39:01;8.10;88.50
63094;DHT22;49183;51.380;0.098;2023-05-24T04:41:31;8.20;88.50
63094;DHT22;49183;51.380;0.098;2023-05-24T04:44:01;8.20;88.40
63094;DHT22;49183;51.380;0.098;2023-05-24T04:46:29;8.20;88.50
63094;DHT22;49183;51.380;0.098;2023-05-24T04:48:57;8.20;88.50
63094;DHT22;49183;51.380;0.098;2023-05-24T04:51:25;8.30;88.50
63094;DHT22;49183;51.380;0.098;2023-05-24T04:53:53;8.30;88.50
63094;DHT22;49183;51.380;0.098;2023-05-24T04:56:20;8.40;88.50
63094;DHT22;49183;51.380;0.098;2023-05-24T04:58:49;8.40;88.50
63094;DHT22;49183;51.380;0.098;2023-05-24T05:01:16;8.50;88.50
63094;DHT22;49183;51.380;0.098;2023-05-24T05:03:44;8.60;88.70
63094;DHT22;49183;51.380;0.098;2023-05-24T05:06:12;8.70;88.80
63094;DHT22;49183;51.380;0.098;2023-05-24T05:08:40;8.80;88.90
63094;DHT22;49183;51.380;0.098;2023-05-24T05:11:08;9.00;88.80
63094;DHT22;49183;51.380;0.098;2023-05-24T05:13:36;9.20;88.70
63094;DHT22;49183;51.380;0.098;2023-05-24T05:16:03;9.30;88.60
63094;DHT22;49183;51.380;0.098;2023-05-24T05:18:31;9.40;88.50
63094;DHT22;49183;51.380;0.098;2023-05-24T05:21:00;9.50;88.50
63094;DHT22;49183;51.380;0.098;2023-05-24T05:23:29;9.60;88.40
63094;DHT22;49183;51.380;0.098;2023-05-24T05:25:57;9.70;88.40
63094;DHT22;49183;51.380;0.098;2023-05-24T05:28:24;9.80;88.40
63094;DHT22;49183;51.380;0.098;2023-05-24T05:30:52;10.00;88.40
63094;DHT22;49183;51.380;0.098;2023-05-24T05:33:19;10.10;88.30
63094;DHT22;49183;51.380;0.098;2023-05-24T05:35:47;10.30;88.30
63094;DHT22;49183;51.380;0.098;2023-05-24T05:38:15;10.50;88.10
63094;DHT22;49183;51.380;0.098;2023-05-24T05:40:43;10.70;88.10
63094;DHT22;49183;51.380;0.098;2023-05-24T05:43:10;10.90;88.00
63094;DHT22;49183;51.380;0.098;2023-05-24T05:45:38;11.30;87.80
63094;DHT22;49183;51.380;0.098;2023-05-24T05:48:06;11.60;87.60
63094;DHT22;49183;51.380;0.098;2023-05-24T05:50:33;11.90;87.30
63094;DHT22;49183;51.380;0.098;2023-05-24T05:53:01;12.10;86.70
63094;DHT22;49183;51.380;0.098;2023-05-24T05:55:29;12.30;86.30
63094;DHT22;49183;51.380;0.098;2023-05-24T05:57:56;12.50;86.00
63094;DHT22;49183;51.380;0.098;2023-05-24T06:00:24;12.60;85.60
63094;DHT22;49183;51.380;0.098;2023-05-24T06:02:51;12.90;85.30
63094;DHT22;49183;51.380;0.098;2023-05-24T06:05:19;13.10;84.80
63094;DHT22;49183;51.380;0.098;2023-05-24T06:07:47;13.30;84.40
63094;DHT22;49183;51.380;0.098;2023-05-24T06:10:15;13.40;83.90
63094;DHT22;49183;51.380;0.098;2023-05-24T06:12:43;13.60;83.70
63094;DHT22;49183;51.380;0.098;2023-05-24T06:15:10;13.80;83.00
63094;DHT22;49183;51.380;0.098;2023-05-24T06:17:38;13.90;82.60
63094;DHT22;49183;51.380;0.098;2023-05-24T06:20:09;14.10;82.10
63094;DHT22;49183;51.380;0.098;2023-05-24T06:22:38;14.20;81.60
63094;DHT22;49183;51.380;0.098;2023-05-24T06:25:06;14.20;80.80
63094;DHT22;49183;51.380;0.098;2023-05-24T06:27:34;14.10;80.00
63094;DHT22;49183;51.380;0.098;2023-05-24T06:30:01;14.10;80.00
63094;DHT22;49183;51.380;0.098;2023-05-24T06:32:30;14.20;79.30
63094;DHT22;49183;51.380;0.098;2023-05-24T06:34:57;14.20;79.10
63094;DHT22;49183;51.380;0.098;2023-05-24T06:37:25;14.20;78.60
63094;DHT22;49183;51.380;0.098;2023-05-24T06:39:53;14.30;78.50
63094;DHT22;49183;51.380;0.098;2023-05-24T06:42:21;14.30;78.30
63094;DHT22;49183;51.380;0.098;2023-05-24T06:44:50;14.30;77.90
63094;DHT22;49183;51.380;0.098;2023-05-24T06:47:20;14.30;77.00
63094;DHT22;49183;51.380;0.098;2023-05-24T06:49:48;14.30;76.50
63094;DHT22;49183;51.380;0.098;2023-05-24T06:52:16;14.40;76.50
63094;DHT22;49183;51.380;0.098;2023-05-24T06:54:43;14.40;76.50
63094;DHT22;49183;51.380;0.098;2023-05-24T06:57:11;14.60;75.80
63094;DHT22;49183;51.380;0.098;2023-05-24T06:59:39;14.50;75.00
63094;DHT22;49183;51.380;0.098;2023-05-24T07:02:07;14.50;74.40
63094;DHT22;49183;51.380;0.098;2023-05-24T07:04:35;14.50;74.30
63094;DHT22;49183;51.380;0.098;2023-05-24T07:07:03;14.40;73.90
63094;DHT22;49183;51.380;0.098;2023-05-24T07:09:31;14.30;73.70
63094;DHT22;49183;51.380;0.098;2023-05-24T07:11:58;14.10;74.10
63094;DHT22;49183;51.380;0.098;2023-05-24T07:14:26;14.10;74.50
63094;DHT22;49183;51.380;0.098;2023-05-24T07:16:54;14.00;74.10
63094;DHT22;49183;51.380;0.098;2023-05-24T07:19:24;14.10;74.10
63094;DHT22;49183;51.380;0.098;2023-05-24T07:21:55;14.40;74.20
63094;DHT22;49183;51.380;0.098;2023-05-24T07:24:23;14.80;73.70
63094;DHT22;49183;51.380;0.098;2023-05-24T07:26:51;15.00;73.70
63094;DHT22;49183;51.380;0.098;2023-05-24T07:29:20;15.30;72.50
63094;DHT22;49183;51.380;0.098;2023-05-24T07:31:48;15.50;72.20
63094;DHT22;49183;51.380;0.098;2023-05-24T07:34:17;15.80;71.50
63094;DHT22;49183;51.380;0.098;2023-05-24T07:36:45;16.10;71.00
63094;DHT22;49183;51.380;0.098;2023-05-24T07:39:15;16.30;69.30
63094;DHT22;49183;51.380;0.098;2023-05-24T07:41:42;16.20;68.80
63094;DHT22;49183;51.380;0.098;2023-05-24T07:44:11;16.20;69.00
63094;DHT22;49183;51.380;0.098;2023-05-24T07:46:39;16.20;68.90
63094;DHT22;49183;51.380;0.098;2023-05-24T07:49:07;16.20;69.00
63094;DHT22;49183;51.380;0.098;2023-05-24T07:51:34;16.20;68.80
63094;DHT22;49183;51.380;0.098;2023-05-24T07:54:03;15.90;67.80
63094;DHT22;49183;51.380;0.098;2023-05-24T07:56:31;15.70;68.30
63094;DHT22;49183;51.380;0.098;2023-05-24T07:58:59;15.40;69.30
63094;DHT22;49183;51.380;0.098;2023-05-24T08:01:31;15.10;69.10
63094;DHT22;49183;51.380;0.098;2023-05-24T08:04:01;14.80;69.30
63094;DHT22;49183;51.380;0.098;2023-05-24T08:06:30;14.70;69.30
63094;DHT22;49183;51.380;0.098;2023-05-24T08:08:59;14.70;69.50
63094;DHT22;49183;51.380;0.098;2023-05-24T08:11:28;14.80;69.60
63094;DHT22;49183;51.380;0.098;2023-05-24T08:13:55;15.10;69.30
63094;DHT22;49183;51.380;0.098;2023-05-24T08:16:23;15.30;68.70
63094;DHT22;49183;51.380;0.098;2023-05-24T08:18:51;15.60;67.40
63094;DHT22;49183;51.380;0.098;2023-05-24T08:21:21;15.70;66.70
63094;DHT22;49183;51.380;0.098;2023-05-24T08:23:49;15.80;66.30
63094;DHT22;49183;51.380;0.098;2023-05-24T08:26:17;15.90;65.90
63094;DHT22;49183;51.380;0.098;2023-05-24T08:28:47;16.10;66.00
63094;DHT22;49183;51.380;0.098;2023-05-24T08:31:15;16.30;64.50
63094;DHT22;49183;51.380;0.098;2023-05-24T08:33:43;16.30;64.50
63094;DHT22;49183;51.380;0.098;2023-05-24T08:36:11;16.40;64.30
63094;DHT22;49183;51.380;0.098;2023-05-24T08:38:39;16.40;63.50
63094;DHT22;49183;51.380;0.098;2023-05-24T08:41:07;16.40;63.20
63094;DHT22;49183;51.380;0.098;2023-05-24T08:43:37;16.40;62.40
63094;DHT22;49183;51.380;0.098;2023-05-24T08:46:05;16.40;62.80
63094;DHT22;49183;51.380;0.098;2023-05-24T08:48:42;16.50;62.70
63094;DHT22;49183;51.380;0.098;2023-05-24T08:51:14;16.60;62.50
63094;DHT22;49183;51.380;0.098;2023-05-24T08:53:45;16.70;61.30
63094;DHT22;49183;51.380;0.098;2023-05-24T08:56:16;16.70;61.30
63094;DHT22;49183;51.380;0.098;2023-05-24T08:58:45;16.80;61.50
63094;DHT22;49183;51.380;0.098;2023-05-24T09:01:15;17.00;61.50
63094;DHT22;49183;51.380;0.098;2023-05-24T09:03:45;17.10;61.20
63094;DHT22;49183;51.380;0.098;2023-05-24T09:06:16;17.30;60.80
63094;DHT22;49183;51.380;0.098;2023-05-24T09:08:44;17.30;59.90
63094;DHT22;49183;51.380;0.098;2023-05-24T09:11:14;17.40;59.70
63094;DHT22;49183;51.380;0.098;2023-05-24T09:13:44;17.30;60.00
63094;DHT22;49183;51.380;0.098;2023-05-24T09:16:12;17.40;59.70
63094;DHT22;49183;51.380;0.098;2023-05-24T09:18:41;17.40;58.70
63094;DHT22;49183;51.380;0.098;2023-05-24T09:21:12;17.40;59.10
63094;DHT22;49183;51.380;0.098;2023-05-24T09:23:40;17.40;58.10
63094;DHT22;49183;51.380;0.098;2023-05-24T09:26:09;17.30;57.90
63094;DHT22;49183;51.380;0.098;2023-05-24T09:28:37;17.30;58.10
63094;DHT22;49183;51.380;0.098;2023-05-24T09:31:05;17.30;58.90
63094;DHT22;49183;51.380;0.098;2023-05-24T09:33:34;17.30;59.10
63094;DHT22;49183;51.380;0.098;2023-05-24T09:36:04;17.50;58.90
63094;DHT22;49183;51.380;0.098;2023-05-24T09:38:32;17.60;58.70
63094;DHT22;49183;51.380;0.098;2023-05-24T09:41:06;17.80;58.70
63094;DHT22;49183;51.380;0.098;2023-05-24T09:43:46;18.00;58.00
63094;DHT22;49183;51.380;0.098;2023-05-24T09:46:17;18.00;57.20
63094;DHT22;49183;51.380;0.098;2023-05-24T09:51:24;18.20;58.10
63094;DHT22;49183;51.380;0.098;2023-05-24T09:53:56;18.30;58.50
63094;DHT22;49183;51.380;0.098;2023-05-24T09:56:24;18.30;59.00
63094;DHT22;49183;51.380;0.098;2023-05-24T09:58:52;18.30;58.50
63094;DHT22;49183;51.380;0.098;2023-05-24T10:01:22;18.30;58.00
63094;DHT22;49183;51.380;0.098;2023-05-24T10:03:56;18.40;58.40
63094;DHT22;49183;51.380;0.098;2023-05-24T10:06:26;18.50;58.50
63094;DHT22;49183;51.380;0.098;2023-05-24T10:08:55;18.60;57.30
63094;DHT22;49183;51.380;0.098;2023-05-24T10:11:23;18.70;56.20
63094;DHT22;49183;51.380;0.098;2023-05-24T10:13:51;18.80;55.60
63094;DHT22;49183;51.380;0.098;2023-05-24T10:16:19;18.80;55.70
63094;DHT22;49183;51.380;0.098;2023-05-24T10:18:46;18.80;55.00
63094;DHT22;49183;51.380;0.098;2023-05-24T10:21:15;18.80;54.50
63094;DHT22;49183;51.380;0.098;2023-05-24T10:23:44;18.80;54.90
63094;DHT22;49183;51.380;0.098;2023-05-24T10:26:18;18.70;55.50
63094;DHT22;49183;51.380;0.098;2023-05-24T10:28:53;18.70;56.10
63094;DHT22;49183;51.380;0.098;2023-05-24T10:31:27;18.70;56.10
63094;DHT22;49183;51.380;0.098;2023-05-24T10:33:58;18.70;54.30
63094;DHT22;49183;51.380;0.098;2023-05-24T10:36:33;18.70;55.00
63094;DHT22;49183;51.380;0.098;2023-05-24T10:39:01;18.80;55.00
63094;DHT22;49183;51.380;0.098;2023-05-24T10:41:38;18.80;54.90
63094;DHT22;49183;51.380;0.098;2023-05-24T10:44:11;18.80;54.40
63094;DHT22;49183;51.380;0.098;2023-05-24T10:47:11;18.70;55.10
63094;DHT22;49183;51.380;0.098;2023-05-24T10:49:49;18.80;55.60
63094;DHT22;49183;51.380;0.098;2023-05-24T10:52:20;19.00;54.60
63094;DHT22;49183;51.380;0.098;2023-05-24T10:55:08;19.10;54.50
63094;DHT22;49183;51.380;0.098;2023-05-24T10:57:37;19.10;53.40
63094;DHT22;49183;51.380;0.098;2023-05-24T11:03:00;19.10;53.20
63094;DHT22;49183;51.380;0.098;2023-05-24T11:05:34;19.10;53.90
63094;DHT22;49183;51.380;0.098;2023-05-24T11:08:02;19.10;53.70
63094;DHT22;49183;51.380;0.098;2023-05-24T11:10:31;19.10;53.20
63094;DHT22;49183;51.380;0.098;2023-05-24T11:12:59;19.30;53.50
63094;DHT22;49183;51.380;0.098;2023-05-24T11:15:30;19.60;53.10
63094;DHT22;49183;51.380;0.098;2023-05-24T11:20:42;19.80;51.90
63094;DHT22;49183;51.380;0.098;2023-05-24T11:23:13;19.80;51.50
63094;DHT22;49183;51.380;0.098;2023-05-24T11:25:41;19.80;51.60
63094;DHT22;49183;51.380;0.098;2023-05-24T11:28:10;19.60;51.50
63094;DHT22;49183;51.380;0.098;2023-05-24T11:30:42;19.60;52.30
63094;DHT22;49183;51.380;0.098;2023-05-24T11:33:19;19.70;52.90
63094;DHT22;49183;51.380;0.098;2023-05-24T11:35:56;19.80;52.20
63094;DHT22;49183;51.380;0.098;2023-05-24T11:38:24;19.80;52.60
63094;DHT22;49183;51.380;0.098;2023-05-24T11:40:52;19.90;52.00
63094;DHT22;49183;51.380;0.098;2023-05-24T11:43:23;20.00;51.80
63094;DHT22;49183;51.380;0.098;2023-05-24T11:45:51;20.00;50.30
63094;DHT22;49183;51.380;0.098;2023-05-24T11:48:22;20.00;50.90
63094;DHT22;49183;51.380;0.098;2023-05-24T11:50:51;20.10;51.10
63094;DHT22;49183;51.380;0.098;2023-05-24T11:53:19;20.20;50.80
63094;DHT22;49183;51.380;0.098;2023-05-24T11:55:47;20.30;50.80
63094;DHT22;49183;51.380;0.098;2023-05-24T12:00:43;20.40;49.50
63094;DHT22;49183;51.380;0.098;2023-05-24T12:03:11;20.40;49.80
63094;DHT22;49183;51.380;0.098;2023-05-24T12:05:39;20.30;49.60
63094;DHT22;49183;51.380;0.098;2023-05-24T12:08:08;20.20;50.20
63094;DHT22;49183;51.380;0.098;2023-05-24T12:10:41;20.00;51.10
63094;DHT22;49183;51.380;0.098;2023-05-24T12:13:20;20.00;51.20
63094;DHT22;49183;51.380;0.098;2023-05-24T12:15:51;19.90;50.30
63094;DHT22;49183;51.380;0.098;2023-05-24T12:18:24;19.80;50.40
63094;DHT22;49183;51.380;0.098;2023-05-24T12:20:53;19.40;50.80
63094;DHT22;49183;51.380;0.098;2023-05-24T12:23:25;19.10;51.70
63094;DHT22;49183;51.380;0.098;2023-05-24T12:26:00;18.80;52.70
63094;DHT22;49183;51.380;0.098;2023-05-24T12:28:35;18.90;53.10
63094;DHT22;49183;51.380;0.098;2023-05-24T12:31:03;19.00;54.10
63094;DHT22;49183;51.380;0.098;2023-05-24T12:33:32;18.90;52.70
63094;DHT22;49183;51.380;0.098;2023-05-24T12:36:00;18.80;52.50
63094;DHT22;49183;51.380;0.098;2023-05-24T12:38:29;18.70;53.60
63094;DHT22;49183;51.380;0.098;2023-05-24T12:40:59;18.70;53.60
63094;DHT22;49183;51.380;0.098;2023-05-24T12:43:39;18.90;54.00
63094;DHT22;49183;51.380;0.098;2023-05-24T12:46:08;19.00;53.50
63094;DHT22;49183;51.380;0.098;2023-05-24T12:48:36;19.00;53.30
63094;DHT22;49183;51.380;0.098;2023-05-24T12:51:03;18.80;52.30
63094;DHT22;49183;51.380;0.098;2023-05-24T12:53:31;18.40;53.10
63094;DHT22;49183;51.380;0.098;2023-05-24T12:55:58;18.40;54.00
63094;DHT22;49183;51.380;0.098;2023-05-24T12:58:27;18.60;54.90
63094;DHT22;49183;51.380;0.098;2023-05-24T13:00:55;18.80;54.80
63094;DHT22;49183;51.380;0.098;2023-05-24T13:03:23;19.00;54.00
63094;DHT22;49183;51.380;0.098;2023-05-24T13:05:51;19.00;53.40
63094;DHT22;49183;51.380;0.098;2023-05-24T13:08:19;19.10;53.20
63094;DHT22;49183;51.380;0.098;2023-05-24T13:10:46;19.00;53.30
63094;DHT22;49183;51.380;0.098;2023-05-24T13:13:15;19.00;53.60
63094;DHT22;49183;51.380;0.098;2023-05-24T13:15:43;19.10;53.60
63094;DHT22;49183;51.380;0.098;2023-05-24T13:18:11;19.20;53.10
63094;DHT22;49183;51.380;0.098;2023-05-24T13:20:39;19.30;53.00
63094;DHT22;49183;51.380;0.098;2023-05-24T13:23:07;19.40;52.50
63094;DHT22;49183;51.380;0.098;2023-05-24T13:25:35;19.40;52.80
63094;DHT22;49183;51.380;0.098;2023-05-24T13:28:03;19.50;52.80
63094;DHT22;49183;51.380;0.098;2023-05-24T13:30:31;19.60;53.00
63094;DHT22;49183;51.380;0.098;2023-05-24T13:32:58;19.60;52.90
63094;DHT22;49183;51.380;0.098;2023-05-24T13:35:28;19.60;53.00
63094;DHT22;49183;51.380;0.098;2023-05-24T13:37:55;19.70;53.20
63094;DHT22;49183;51.380;0.098;2023-05-24T13:40:24;19.80;52.40
63094;DHT22;49183;51.380;0.098;2023-05-24T13:42:55;19.80;52.10
63094;DHT22;49183;51.380;0.098;2023-05-24T13:45:23;19.60;52.10
63094;DHT22;49183;51.380;0.098;2023-05-24T13:47:51;19.50;52.20
63094;DHT22;49183;51.380;0.098;2023-05-24T13:50:20;19.50;52.30
63094;DHT22;49183;51.380;0.098;2023-05-24T13:52:50;19.70;52.40
63094;DHT22;49183;51.380;0.098;2023-05-24T13:55:18;19.80;52.40
63094;DHT22;49183;51.380;0.098;2023-05-24T13:57:45;19.90;51.70
63094;DHT22;49183;51.380;0.098;2023-05-24T14:00:18;19.90;51.50
63094;DHT22;49183;51.380;0.098;2023-05-24T14:02:47;19.80;51.00
63094;DHT22;49183;51.380;0.098;2023-05-24T14:05:15;19.70;51.50
63094;DHT22;49183;51.380;0.098;2023-05-24T14:07:46;19.70;51.40
63094;DHT22;49183;51.380;0.098;2023-05-24T14:10:13;19.70;51.50
63094;DHT22;49183;51.380;0.098;2023-05-24T14:12:41;19.70;51.20
63094;DHT22;49183;51.380;0.098;2023-05-24T14:15:09;19.60;51.00
63094;DHT22;49183;51.380;0.098;2023-05-24T14:17:37;19.60;51.40
63094;DHT22;49183;51.380;0.098;2023-05-24T14:20:05;19.60;51.60
63094;DHT22;49183;51.380;0.098;2023-05-24T14:22:33;19.60;51.10
63094;DHT22;49183;51.380;0.098;2023-05-24T14:25:01;19.60;50.60
63094;DHT22;49183;51.380;0.098;2023-05-24T14:27:29;19.60;50.30
63094;DHT22;49183;51.380;0.098;2023-05-24T14:29:57;19.50;50.40
63094;DHT22;49183;51.380;0.098;2023-05-24T14:32:25;19.40;50.80
63094;DHT22;49183;51.380;0.098;2023-05-24T14:34:53;19.50;51.20
63094;DHT22;49183;51.380;0.098;2023-05-24T14:37:21;19.50;51.00
63094;DHT22;49183;51.380;0.098;2023-05-24T14:39:49;19.60;51.40
63094;DHT22;49183;51.380;0.098;2023-05-24T14:42:16;19.50;51.60
63094;DHT22;49183;51.380;0.098;2023-05-24T14:44:44;19.40;50.90
63094;DHT22;49183;51.380;0.098;2023-05-24T14:47:11;19.30;50.50
63094;DHT22;49183;51.380;0.098;2023-05-24T14:49:39;19.20;51.00
63094;DHT22;49183;51.380;0.098;2023-05-24T14:52:07;19.20;51.10
63094;DHT22;49183;51.380;0.098;2023-05-24T14:54:34;19.30;51.20
63094;DHT22;49183;51.380;0.098;2023-05-24T14:57:02;19.20;51.10
63094;DHT22;49183;51.380;0.098;2023-05-24T14:59:30;19.10;51.10
63094;DHT22;49183;51.380;0.098;2023-05-24T15:01:58;19.10;52.00
63094;DHT22;49183;51.380;0.098;2023-05-24T15:04:25;19.10;51.90
63094;DHT22;49183;51.380;0.098;2023-05-24T15:06:54;19.20;52.10
63094;DHT22;49183;51.380;0.098;2023-05-24T15:09:22;19.30;51.00
63094;DHT22;49183;51.380;0.098;2023-05-24T15:11:50;19.20;51.40
63094;DHT22;49183;51.380;0.098;2023-05-24T15:14:18;19.20;51.90
63094;DHT22;49183;51.380;0.098;2023-05-24T15:16:46;19.20;52.00
63094;DHT22;49183;51.380;0.098;2023-05-24T15:19:15;19.40;52.10
63094;DHT22;49183;51.380;0.098;2023-05-24T15:21:42;19.30;51.90
63094;DHT22;49183;51.380;0.098;2023-05-24T15:24:10;19.30;51.80
63094;DHT22;49183;51.380;0.098;2023-05-24T15:26:39;19.30;51.80
63094;DHT22;49183;51.380;0.098;2023-05-24T15:29:08;19.20;51.80
63094;DHT22;49183;51.380;0.098;2023-05-24T15:31:36;19.10;52.10
63094;DHT22;49183;51.380;0.098;2023-05-24T15:34:03;19.00;52.20
63094;DHT22;49183;51.380;0.098;2023-05-24T15:36:32;18.90;52.30
63094;DHT22;49183;51.380;0.098;2023-05-24T15:39:00;18.80;52.90
63094;DHT22;49183;51.380;0.098;2023-05-24T15:41:28;18.80;53.50
63094;DHT22;49183;51.380;0.098;2023-05-24T15:43:56;18.80;52.90
63094;DHT22;49183;51.380;0.098;2023-05-24T15:46:25;18.80;53.10
63094;DHT22;49183;51.380;0.098;2023-05-24T15:48:53;18.80;53.40
63094;DHT22;49183;51.380;0.098;2023-05-24T15:51:21;18.70;52.80
63094;DHT22;49183;51.380;0.098;2023-05-24T15:54:09;18.60;52.80
63094;DHT22;49183;51.380;0.098;2023-05-24T15:56:37;18.30;53.30
63094;DHT22;49183;51.380;0.098;2023-05-24T15:59:04;18.20;53.80
63094;DHT22;49183;51.380;0.098;2023-05-24T16:01:32;18.20;54.10
63094;DHT22;49183;51.380;0.098;2023-05-24T16:04:00;18.20;53.90
63094;DHT22;49183;51.380;0.098;2023-05-24T16:06:28;18.00;53.90
63094;DHT22;49183;51.380;0.098;2023-05-24T16:08:55;17.90;54.50
63094;DHT22;49183;51.380;0.098;2023-05-24T16:11:23;17.90;54.70
63094;DHT22;49183;51.380;0.098;2023-05-24T16:13:51;18.00;54.70
63094;DHT22;49183;51.380;0.098;2023-05-24T16:16:20;18.00;54.50